< Typhoon 200916 2009 Season Typhoon 200918 >
Typhoon 200917 (PARMA)
General InformationTrack Information on Google MapsDetailed Wind InformationAccess Analytics MapList of All Images || NewsDisaster Info.WeblogTrackbackTyphoon FrontTwiphoonTyphoon ImaginationResourceGoogle EarthGE AnimationAtom FeedGeoJSON
Detalied Best Track (Time Zone = UTC)
Year Month Day Hour Lat. Long. Pressure (hPa) Wind (kt) Class Image Chart
2009 9 27 18 9.4 145.5 1004 0 2 Image Chart
2009 9 28 00 9.4 144.6 1002 0 2 Image Chart
2009 9 28 06 9.2 143.3 1000 0 2 Image Chart
2009 9 28 12 9.0 142.1 1000 0 2 Image Chart
2009 9 28 18 8.6 140.8 998 0 2 Image Chart
2009 9 29 00 8.0 139.7 996 0 2 Image Chart
2009 9 29 06 7.8 138.9 994 35 3 Image Chart
2009 9 29 12 8.0 138.0 992 40 3 Image Chart
2009 9 29 18 8.4 137.5 990 50 4 Image Chart
2009 9 30 00 9.1 136.8 980 60 4 Image Chart
2009 9 30 06 9.9 135.4 970 70 5 Image Chart
2009 9 30 12 10.5 134.0 960 80 5 Image Chart
2009 9 30 18 11.3 132.5 945 90 5 Image Chart
2009 10 1 00 11.8 131.1 930 100 5 Image Chart
2009 10 1 06 12.5 129.7 930 100 5 Image Chart
2009 10 1 12 13.1 128.5 930 100 5 Image Chart
2009 10 1 18 13.7 127.6 940 90 5 Image Chart
2009 10 2 00 14.5 126.3 940 90 5 Image Chart
2009 10 2 06 15.0 125.4 955 80 5 Image Chart
2009 10 2 12 15.8 124.7 955 80 5 Image Chart
2009 10 2 18 16.4 123.7 965 75 5 Image Chart
2009 10 3 00 17.1 122.9 965 75 5 Image Chart
2009 10 3 06 17.8 122.2 965 75 5 Image Chart
2009 10 3 12 18.3 121.5 970 65 5 Image Chart
2009 10 3 18 18.6 120.7 975 60 4 Image Chart
2009 10 4 00 18.8 120.1 980 60 4 Image Chart
2009 10 4 06 19.3 119.9 980 60 4 Image Chart
2009 10 4 12 19.6 119.8 985 55 4 Image Chart
2009 10 4 18 19.9 119.7 990 50 4 Image Chart
2009 10 5 00 20.1 119.6 990 50 4 Image Chart
2009 10 5 06 20.1 119.8 990 50 4 Image Chart
2009 10 5 12 20.0 119.9 985 55 4 Image Chart
2009 10 5 18 19.8 120.0 985 55 4 Image Chart
2009 10 6 00 19.3 120.2 985 55 4 Image Chart
2009 10 6 06 18.9 120.6 985 55 4 Image Chart
2009 10 6 12 18.4 121.0 990 50 4 Image Chart
2009 10 6 18 17.9 121.4 994 40 3 Image Chart
2009 10 7 00 17.6 122.4 996 35 3 Image Chart
2009 10 7 06 17.7 122.7 996 35 3 Image Chart
2009 10 7 12 18.1 122.7 994 40 3 Image Chart
2009 10 7 18 17.8 122.9 994 40 3 Image Chart
2009 10 8 00 17.4 122.5 994 40 3 Image Chart
2009 10 8 06 17.4 122.0 994 40 3 Image Chart
2009 10 8 12 17.5 121.4 994 40 3 Image Chart
2009 10 8 18 17.7 120.8 996 35 3 Image Chart
2009 10 9 00 18.2 119.8 998 35 3 Image Chart
2009 10 9 06 18.1 119.7 998 35 3 Image Chart
2009 10 9 12 17.5 119.2 998 35 3 Image Chart
2009 10 9 18 17.3 118.7 998 35 3 Image Chart
2009 10 10 00 17.1 118.6 1000 0 2 Image Chart
2009 10 10 06 18.0 118.2 1000 0 2 Image Chart
2009 10 10 12 18.3 116.9 1000 0 2 Image Chart
2009 10 10 18 17.9 115.6 1000 0 2 Image Chart
2009 10 11 00 17.3 114.0 998 35 3 Image Chart
2009 10 11 06 17.5 113.0 998 35 3 Image Chart
2009 10 11 12 18.0 112.6 998 35 3 Image Chart
2009 10 11 18 18.6 111.7 998 35 3 Image Chart
2009 10 12 00 19.1 111.0 996 35 3 Image Chart
2009 10 12 06 19.3 110.1 996 35 3 Image Chart
2009 10 12 12 19.8 109.6 996 40 3 Image Chart
2009 10 12 18 19.8 109.0 994 40 3 Image Chart
2009 10 13 00 19.9 108.6 992 45 3 Image Chart
2009 10 13 06 20.2 108.1 990 50 4 Image Chart
2009 10 13 12 20.4 107.7 994 40 3 Image Chart
2009 10 13 18 20.4 107.4 1000 35 3 Image Chart
2009 10 14 00 20.3 107.1 1008 0 2 Image Chart
2009 10 14 06 20.0 107.0 1010 0 2 Image Chart
2009 10 14 12 19.5 106.9 1012 0 2 Image Chart
Japan Meteorological Agency Best Track Data | Correction Date : 2009-11-27
< Typhoon 200916 2009 Season Typhoon 200918 >

Help